createdAt,value
2023-02-18T00:00:33.533Z,13.20
2023-02-18T00:03:00.781Z,13.20
2023-02-18T00:05:29.712Z,13.20
2023-02-18T00:07:57.118Z,13.20
2023-02-18T00:10:24.329Z,13.20
2023-02-18T00:12:51.637Z,13.20
2023-02-18T00:15:18.883Z,13.10
2023-02-18T00:17:46.176Z,13.20
2023-02-18T00:20:13.624Z,13.20
2023-02-18T00:22:40.956Z,13.10
2023-02-18T00:25:08.432Z,13.20
2023-02-18T00:27:35.704Z,13.20
2023-02-18T00:30:04.770Z,13.10
2023-02-18T00:32:35.538Z,13.10
2023-02-18T00:35:04.159Z,13.10
2023-02-18T00:37:32.442Z,13.10
2023-02-18T00:40:01.703Z,13.10
2023-02-18T00:42:30.793Z,13.10
2023-02-18T00:44:58.123Z,13.10
2023-02-18T00:47:25.423Z,13.10
2023-02-18T00:49:52.681Z,13.10
2023-02-18T00:52:20.112Z,13.10
2023-02-18T00:54:47.507Z,13.10
2023-02-18T00:57:14.786Z,13.10
2023-02-18T00:59:42.058Z,13.10
2023-02-18T01:02:09.291Z,13.10
2023-02-18T01:04:36.567Z,13.10
2023-02-18T01:07:03.828Z,13.10
2023-02-18T01:09:31.076Z,13.10
2023-02-18T01:11:58.389Z,13.10
2023-02-18T01:14:25.670Z,13.10
2023-02-18T01:16:53.000Z,13.10
2023-02-18T01:19:20.216Z,13.10
2023-02-18T01:21:47.513Z,13.00
2023-02-18T01:24:15.432Z,13.00
2023-02-18T01:26:43.089Z,13.00
2023-02-18T01:29:10.287Z,13.10
2023-02-18T01:31:37.705Z,13.10
2023-02-18T01:34:05.096Z,13.10
2023-02-18T01:36:32.315Z,13.10
2023-02-18T01:39:00.481Z,13.10
2023-02-18T01:41:28.001Z,13.10
2023-02-18T01:44:11.737Z,13.10
2023-02-18T01:46:39.153Z,13.10
2023-02-18T01:49:07.630Z,13.10
2023-02-18T01:51:39.407Z,13.10
2023-02-18T01:54:14.921Z,13.10
2023-02-18T01:56:59.158Z,13.10
2023-02-18T01:59:31.739Z,13.10
2023-02-18T02:01:59.562Z,13.10
2023-02-18T02:04:30.413Z,13.10
2023-02-18T02:06:57.874Z,13.10
2023-02-18T02:09:27.252Z,13.10
2023-02-18T02:12:20.208Z,13.10
2023-02-18T02:14:47.878Z,13.10
2023-02-18T02:17:32.864Z,13.10
2023-02-18T02:20:15.582Z,13.10
2023-02-18T02:23:00.891Z,13.10
2023-02-18T02:25:59.437Z,13.10
2023-02-18T02:28:54.522Z,13.10
2023-02-18T02:31:46.241Z,13.10
2023-02-18T02:34:29.205Z,13.10
2023-02-18T02:37:14.595Z,13.10
2023-02-18T02:39:56.611Z,13.10
2023-02-18T02:42:46.533Z,13.10
2023-02-18T02:45:28.402Z,13.10
2023-02-18T02:48:08.682Z,13.10
2023-02-18T02:50:43.897Z,13.10
2023-02-18T02:53:17.545Z,13.20
2023-02-18T02:55:44.975Z,13.10
2023-02-18T02:58:16.843Z,13.10
2023-02-18T03:00:47.098Z,13.00
2023-02-18T03:03:47.610Z,13.00
2023-02-18T03:06:24.657Z,13.00
2023-02-18T03:09:07.182Z,13.10
2023-02-18T03:11:47.353Z,13.10
2023-02-18T03:14:47.802Z,13.10
2023-02-18T03:17:46.316Z,13.10
2023-02-18T03:20:27.677Z,13.10
2023-02-18T03:22:59.778Z,13.10
2023-02-18T03:25:29.565Z,13.10
2023-02-18T03:28:02.303Z,13.00
2023-02-18T03:30:33.741Z,13.10
2023-02-18T03:33:07.523Z,13.00
2023-02-18T03:35:36.997Z,13.00
2023-02-18T03:38:30.124Z,13.00
2023-02-18T03:40:58.066Z,13.00
2023-02-18T03:43:25.392Z,13.00
2023-02-18T03:45:54.298Z,13.00
2023-02-18T03:48:22.078Z,13.00
2023-02-18T03:50:52.781Z,12.90
2023-02-18T03:53:20.138Z,12.90
2023-02-18T03:55:47.475Z,12.90
2023-02-18T03:58:14.717Z,12.90
2023-02-18T04:00:42.008Z,12.90
2023-02-18T04:03:09.349Z,13.00
2023-02-18T04:05:36.606Z,13.00
2023-02-18T04:08:04.043Z,12.90
2023-02-18T04:10:31.415Z,12.90
2023-02-18T04:12:58.704Z,12.90
2023-02-18T04:15:26.016Z,12.90
2023-02-18T04:17:53.274Z,12.80
2023-02-18T04:20:20.678Z,12.80
2023-02-18T04:22:48.214Z,12.80
2023-02-18T04:25:15.557Z,12.80
2023-02-18T04:27:42.784Z,12.80
2023-02-18T04:30:10.827Z,12.80
2023-02-18T04:32:38.514Z,12.80
2023-02-18T04:35:06.451Z,12.80
2023-02-18T04:37:33.891Z,12.80
2023-02-18T04:40:01.152Z,12.80
2023-02-18T04:42:29.247Z,12.80
2023-02-18T04:44:56.475Z,12.80
2023-02-18T04:47:24.320Z,12.80
2023-02-18T04:49:51.601Z,12.80
2023-02-18T04:52:19.218Z,12.80
2023-02-18T04:54:46.616Z,12.80
2023-02-18T04:57:13.835Z,12.80
2023-02-18T04:59:41.267Z,12.80
2023-02-18T05:02:08.609Z,12.80
2023-02-18T05:04:35.898Z,12.80
2023-02-18T05:07:06.568Z,12.80
2023-02-18T05:09:33.885Z,12.80
2023-02-18T05:12:01.066Z,12.70
2023-02-18T05:14:28.246Z,12.70
2023-02-18T05:16:55.700Z,12.60
2023-02-18T05:19:23.266Z,12.60
2023-02-18T05:21:50.539Z,12.60
2023-02-18T05:24:17.865Z,12.50
2023-02-18T05:26:45.137Z,12.50
2023-02-18T05:29:12.542Z,12.50
2023-02-18T05:31:40.106Z,12.60
2023-02-18T05:34:07.618Z,12.50
2023-02-18T05:36:34.976Z,12.60
2023-02-18T05:39:02.354Z,12.60
2023-02-18T05:41:29.655Z,12.50
2023-02-18T05:44:15.324Z,12.50
2023-02-18T05:46:42.597Z,12.50
2023-02-18T05:49:09.934Z,12.50
2023-02-18T05:51:37.156Z,12.40
2023-02-18T05:54:04.665Z,12.50
2023-02-18T05:56:31.996Z,12.50
2023-02-18T05:58:59.332Z,12.50
2023-02-18T06:01:26.639Z,12.50
2023-02-18T06:03:53.949Z,12.40
2023-02-18T06:06:21.465Z,12.40
2023-02-18T06:08:48.908Z,12.30
2023-02-18T06:11:16.238Z,12.30
2023-02-18T06:13:43.531Z,12.30
2023-02-18T06:16:11.262Z,12.30
2023-02-18T06:18:38.763Z,12.30
2023-02-18T06:21:06.424Z,12.40
2023-02-18T06:23:33.871Z,12.30
2023-02-18T06:26:01.334Z,12.20
2023-02-18T06:28:28.832Z,12.20
2023-02-18T06:30:56.367Z,12.20
2023-02-18T06:33:23.743Z,12.20
2023-02-18T06:35:59.634Z,12.20
2023-02-18T06:38:28.711Z,12.20
2023-02-18T06:40:55.995Z,12.20
2023-02-18T06:43:23.405Z,12.30
2023-02-18T06:45:50.993Z,12.20
2023-02-18T06:48:18.307Z,12.20
2023-02-18T06:50:45.865Z,12.20
2023-02-18T06:53:13.336Z,12.20
2023-02-18T06:55:42.506Z,12.20
2023-02-18T06:58:11.697Z,12.30
2023-02-18T07:00:39.154Z,12.30
2023-02-18T07:03:11.466Z,12.30
2023-02-18T07:06:04.069Z,12.30
2023-02-18T07:08:37.791Z,12.40
2023-02-18T07:11:05.451Z,12.40
2023-02-18T07:13:32.868Z,12.30
2023-02-18T07:16:00.236Z,12.40
2023-02-18T07:18:27.700Z,12.40
2023-02-18T07:20:55.057Z,12.40
2023-02-18T07:23:22.308Z,12.50
2023-02-18T07:25:49.607Z,12.50
2023-02-18T07:28:16.920Z,12.50
2023-02-18T07:30:44.306Z,12.50
2023-02-18T07:33:11.632Z,12.50
2023-02-18T07:35:39.442Z,12.50
2023-02-18T07:38:09.071Z,12.50
2023-02-18T07:40:36.469Z,12.50
2023-02-18T07:43:03.696Z,12.60
2023-02-18T07:45:30.956Z,12.60
2023-02-18T07:47:58.332Z,12.60
2023-02-18T07:50:28.780Z,12.60
2023-02-18T07:53:08.139Z,12.60
2023-02-18T07:55:52.161Z,12.70
2023-02-18T07:58:26.034Z,12.60
2023-02-18T08:00:54.691Z,12.60
2023-02-18T08:03:27.205Z,12.60
2023-02-18T08:05:55.517Z,12.60
2023-02-18T08:08:25.853Z,12.60
2023-02-18T08:10:55.464Z,12.50
2023-02-18T08:13:22.980Z,12.50
2023-02-18T08:15:50.497Z,12.50
2023-02-18T08:18:21.446Z,12.50
2023-02-18T08:20:50.427Z,12.50
2023-02-18T08:23:20.226Z,12.40
2023-02-18T08:25:50.297Z,12.40
2023-02-18T08:28:19.329Z,12.40
2023-02-18T08:30:51.859Z,12.30
2023-02-18T08:33:20.013Z,12.40
2023-02-18T08:35:49.162Z,12.30
2023-02-18T08:38:16.433Z,12.20
2023-02-18T08:40:43.933Z,12.20
2023-02-18T08:43:11.515Z,12.20
2023-02-18T08:45:39.959Z,12.10
2023-02-18T08:48:13.656Z,12.10
2023-02-18T08:50:46.265Z,12.10
2023-02-18T08:53:13.659Z,12.10
2023-02-18T08:55:41.438Z,12.10
2023-02-18T08:58:09.161Z,12.00
2023-02-18T09:00:37.160Z,12.00
2023-02-18T09:03:04.982Z,11.90
2023-02-18T09:05:32.385Z,11.90
2023-02-18T09:07:59.970Z,11.90
2023-02-18T09:10:27.241Z,11.90
2023-02-18T09:12:54.541Z,11.90
2023-02-18T09:15:21.832Z,11.90
2023-02-18T09:17:49.070Z,11.90
2023-02-18T09:20:16.486Z,12.00
2023-02-18T09:22:43.767Z,12.00
2023-02-18T09:25:11.011Z,12.00
2023-02-18T09:27:38.323Z,12.10
2023-02-18T09:30:07.126Z,12.10
2023-02-18T09:32:35.577Z,12.10
2023-02-18T09:35:05.450Z,12.10
2023-02-18T09:37:32.783Z,12.10
2023-02-18T09:40:00.143Z,12.20
2023-02-18T09:42:34.959Z,12.10
2023-02-18T09:45:07.168Z,12.10
2023-02-18T09:47:38.669Z,12.20
2023-02-18T09:50:08.878Z,12.20
2023-02-18T09:52:38.483Z,12.20
2023-02-18T09:55:21.027Z,12.20
2023-02-18T09:57:58.119Z,12.20
2023-02-18T10:00:32.097Z,12.20
2023-02-18T10:03:07.868Z,12.20
2023-02-18T10:05:37.207Z,12.20
2023-02-18T10:08:14.833Z,12.20
2023-02-18T10:10:44.899Z,12.20
2023-02-18T10:13:25.234Z,12.20
2023-02-18T10:15:53.322Z,12.20
2023-02-18T10:18:39.789Z,12.30
2023-02-18T10:21:17.995Z,12.30
2023-02-18T10:24:09.919Z,12.30
2023-02-18T10:26:39.123Z,12.40
2023-02-18T10:29:15.691Z,12.40
2023-02-18T10:31:54.416Z,12.40
2023-02-18T10:34:28.534Z,12.50
2023-02-18T10:37:15.743Z,12.40
2023-02-18T10:40:12.568Z,12.40
2023-02-18T10:43:09.582Z,12.40
2023-02-18T10:45:51.271Z,12.40
2023-02-18T10:48:18.845Z,12.50
2023-02-18T10:50:46.852Z,12.40
2023-02-18T10:53:34.753Z,12.40
2023-02-18T10:56:02.956Z,12.40
2023-02-18T10:58:47.485Z,12.50
2023-02-18T11:01:21.061Z,12.50
2023-02-18T11:03:51.238Z,12.40
2023-02-18T11:06:31.501Z,12.50
2023-02-18T11:09:00.000Z,12.50
2023-02-18T11:11:38.159Z,12.50
2023-02-18T11:14:08.123Z,12.50
2023-02-18T11:16:44.998Z,12.50
2023-02-18T11:19:38.472Z,12.40
2023-02-18T11:22:22.633Z,12.50
2023-02-18T11:24:55.835Z,12.40
2023-02-18T11:27:42.098Z,12.40
2023-02-18T11:30:35.648Z,12.50
2023-02-18T11:33:09.498Z,12.50
2023-02-18T11:35:38.164Z,12.50
2023-02-18T11:38:26.227Z,12.60
2023-02-18T11:41:03.208Z,12.50
2023-02-18T11:43:31.671Z,12.60
2023-02-18T11:46:20.859Z,12.60
2023-02-18T11:48:48.979Z,12.60
2023-02-18T11:51:33.106Z,12.50
2023-02-18T11:54:04.238Z,12.50
2023-02-18T11:56:36.429Z,12.50
2023-02-18T11:59:04.493Z,12.40
2023-02-18T12:01:46.189Z,12.40
2023-02-18T12:04:26.408Z,12.30
2023-02-18T12:07:15.750Z,12.30
2023-02-18T12:09:57.133Z,12.20
2023-02-18T12:12:36.350Z,12.10
2023-02-18T12:15:04.009Z,12.10
2023-02-18T12:17:45.594Z,12.10
2023-02-18T12:20:28.057Z,12.10
2023-02-18T12:23:10.954Z,12.10
2023-02-18T12:25:48.909Z,12.10
2023-02-18T12:28:43.747Z,12.10
2023-02-18T12:31:35.540Z,12.10
2023-02-18T12:34:12.157Z,12.10
2023-02-18T12:37:01.345Z,12.00
2023-02-18T12:40:06.438Z,11.90
2023-02-18T12:42:44.481Z,12.00
2023-02-18T12:45:30.893Z,12.00
2023-02-18T12:48:13.162Z,12.00
2023-02-18T12:50:48.799Z,12.00
2023-02-18T12:53:16.239Z,12.00
2023-02-18T12:55:58.796Z,12.00
2023-02-18T12:58:44.481Z,12.10
2023-02-18T13:01:25.221Z,12.10
2023-02-18T13:04:19.006Z,12.10
2023-02-18T13:07:17.392Z,12.10
2023-02-18T13:10:00.702Z,12.10
2023-02-18T13:12:39.882Z,12.10
2023-02-18T13:15:51.143Z,12.10
2023-02-18T13:18:42.249Z,12.10
2023-02-18T13:21:12.678Z,12.10
2023-02-18T13:23:43.463Z,12.10
2023-02-18T13:26:14.874Z,12.10
2023-02-18T13:29:02.412Z,12.10
2023-02-18T13:31:52.388Z,12.10
2023-02-18T13:34:22.546Z,12.10
2023-02-18T13:37:26.848Z,12.00
2023-02-18T13:39:57.053Z,12.00
2023-02-18T13:42:33.081Z,12.00
2023-02-18T13:45:00.345Z,12.00
2023-02-18T13:47:40.990Z,12.00
2023-02-18T13:50:25.548Z,12.00
2023-02-18T13:53:13.274Z,12.00
2023-02-18T13:55:55.774Z,12.10
2023-02-18T13:58:30.508Z,12.10
2023-02-18T14:01:06.906Z,12.20
2023-02-18T14:03:42.576Z,12.20
2023-02-18T14:06:23.398Z,12.20
2023-02-18T14:08:51.966Z,12.20
2023-02-18T14:11:22.708Z,12.20
2023-02-18T14:13:54.625Z,12.20
2023-02-18T14:16:22.542Z,12.20
2023-02-18T14:18:59.340Z,12.20
2023-02-18T14:21:39.171Z,12.20
2023-02-18T14:24:09.574Z,12.20
2023-02-18T14:26:44.818Z,12.20
2023-02-18T14:29:19.150Z,12.20
2023-02-18T14:31:50.751Z,12.20
2023-02-18T14:34:21.847Z,12.20
2023-02-18T14:37:06.393Z,12.20
2023-02-18T14:39:43.450Z,12.20
2023-02-18T14:42:16.702Z,12.20
2023-02-18T14:45:05.054Z,12.20
2023-02-18T14:47:50.906Z,12.20
2023-02-18T14:50:21.529Z,12.20
2023-02-18T14:52:53.380Z,12.20
2023-02-18T14:55:23.486Z,12.20
2023-02-18T14:58:27.680Z,12.20
2023-02-18T15:00:55.285Z,12.20
2023-02-18T15:03:22.811Z,12.20
2023-02-18T15:05:51.380Z,12.30
2023-02-18T15:08:22.115Z,12.30
2023-02-18T15:11:05.693Z,12.30
2023-02-18T15:13:36.780Z,12.40
2023-02-18T15:16:07.434Z,12.40
2023-02-18T15:18:38.238Z,12.40
2023-02-18T15:21:08.143Z,12.40
2023-02-18T15:23:38.479Z,12.40
2023-02-18T15:26:07.277Z,12.40
2023-02-18T15:28:35.258Z,12.40
2023-02-18T15:31:04.479Z,12.40
2023-02-18T15:33:31.817Z,12.30
2023-02-18T15:36:06.916Z,12.30
2023-02-18T15:38:34.284Z,12.40
2023-02-18T15:41:01.986Z,12.40
2023-02-18T15:43:30.045Z,12.40
2023-02-18T15:45:58.743Z,12.40
2023-02-18T15:48:26.128Z,12.40
2023-02-18T15:50:58.497Z,12.40
2023-02-18T15:53:31.210Z,12.30
2023-02-18T15:55:58.608Z,12.30
2023-02-18T15:58:32.661Z,12.30
2023-02-18T16:01:03.040Z,12.30
2023-02-18T16:03:37.242Z,12.30
2023-02-18T16:06:10.832Z,12.30
2023-02-18T16:08:41.027Z,12.40
2023-02-18T16:11:12.054Z,12.40
2023-02-18T16:13:47.666Z,12.30
2023-02-18T16:16:30.789Z,12.40
2023-02-18T16:18:58.221Z,12.40
2023-02-18T16:21:30.161Z,12.30
2023-02-18T16:24:00.121Z,12.30
2023-02-18T16:26:38.341Z,12.30
2023-02-18T16:29:14.701Z,12.30
2023-02-18T16:31:43.301Z,12.40
2023-02-18T16:34:10.592Z,12.40
2023-02-18T16:36:37.831Z,12.40
2023-02-18T16:39:05.545Z,12.40
2023-02-18T16:41:32.975Z,12.40
2023-02-18T16:44:01.495Z,12.30
2023-02-18T16:46:30.173Z,12.30
2023-02-18T16:48:58.538Z,12.30
2023-02-18T16:51:34.797Z,12.30
2023-02-18T16:54:02.377Z,12.40
2023-02-18T16:56:35.399Z,12.40
2023-02-18T16:59:03.078Z,12.40
2023-02-18T17:01:41.402Z,12.40
2023-02-18T17:04:12.835Z,12.40
2023-02-18T17:06:40.251Z,12.40
2023-02-18T17:09:16.860Z,12.40
2023-02-18T17:11:49.775Z,12.40
2023-02-18T17:14:18.744Z,12.40
2023-02-18T17:16:50.466Z,12.40
2023-02-18T17:19:18.002Z,12.40
2023-02-18T17:21:47.576Z,12.50
2023-02-18T17:24:17.940Z,12.50
2023-02-18T17:26:45.496Z,12.50
2023-02-18T17:29:14.368Z,12.50
2023-02-18T17:31:46.903Z,12.50
2023-02-18T17:34:41.217Z,12.50
2023-02-18T17:37:17.293Z,12.50
2023-02-18T17:39:44.561Z,12.50
2023-02-18T17:42:12.122Z,12.50
2023-02-18T17:44:40.465Z,12.50
2023-02-18T17:47:07.865Z,12.40
2023-02-18T17:49:35.069Z,12.40
2023-02-18T17:52:02.417Z,12.40
2023-02-18T17:54:30.963Z,12.40
2023-02-18T17:56:58.206Z,12.40
2023-02-18T17:59:25.433Z,12.40
2023-02-18T18:01:52.714Z,12.40
2023-02-18T18:04:20.085Z,12.50
2023-02-18T18:06:47.583Z,12.50
2023-02-18T18:09:14.892Z,12.50
2023-02-18T18:11:42.287Z,12.50
2023-02-18T18:14:15.004Z,12.50
2023-02-18T18:16:43.276Z,12.50
2023-02-18T18:19:10.624Z,12.60
2023-02-18T18:21:38.145Z,12.50
2023-02-18T18:24:05.898Z,12.50
2023-02-18T18:26:33.249Z,12.50
2023-02-18T18:29:00.533Z,12.50
2023-02-18T18:31:28.182Z,12.40
2023-02-18T18:33:56.492Z,12.50
2023-02-18T18:36:26.393Z,12.50
2023-02-18T18:38:53.662Z,12.50
2023-02-18T18:41:22.752Z,12.50
2023-02-18T18:43:50.740Z,12.50
2023-02-18T18:46:19.206Z,12.50
2023-02-18T18:48:46.586Z,12.50
2023-02-18T18:51:19.637Z,12.50
2023-02-18T18:53:47.425Z,12.50
2023-02-18T18:56:14.828Z,12.40
2023-02-18T18:58:42.207Z,12.50
2023-02-18T19:01:16.475Z,12.50
2023-02-18T19:03:45.004Z,12.50
2023-02-18T19:06:14.005Z,12.50
2023-02-18T19:08:41.395Z,12.50
2023-02-18T19:11:12.458Z,12.50
2023-02-18T19:13:40.338Z,12.50
2023-02-18T19:16:15.143Z,12.50
2023-02-18T19:18:42.646Z,12.50
2023-02-18T19:21:10.301Z,12.50
2023-02-18T19:23:38.289Z,12.40
2023-02-18T19:26:06.248Z,12.40
2023-02-18T19:28:34.063Z,12.40
2023-02-18T19:31:01.871Z,12.50
2023-02-18T19:33:29.324Z,12.40
2023-02-18T19:35:56.610Z,12.50
2023-02-18T19:38:23.886Z,12.50
2023-02-18T19:40:51.132Z,12.50
2023-02-18T19:43:18.445Z,12.50
2023-02-18T19:45:47.167Z,12.50
2023-02-18T19:48:15.485Z,12.50
2023-02-18T19:50:43.588Z,12.50
2023-02-18T19:53:11.386Z,12.50
2023-02-18T19:55:39.327Z,12.40
2023-02-18T19:58:07.441Z,12.40
2023-02-18T20:00:34.964Z,12.40
2023-02-18T20:03:02.265Z,12.40
2023-02-18T20:05:29.544Z,12.50
2023-02-18T20:07:56.820Z,12.50
2023-02-18T20:10:25.383Z,12.50
2023-02-18T20:12:53.793Z,12.50
2023-02-18T20:15:22.076Z,12.50
2023-02-18T20:17:49.954Z,12.40
2023-02-18T20:20:17.645Z,12.40
2023-02-18T20:22:45.595Z,12.50
2023-02-18T20:25:12.993Z,12.40
2023-02-18T20:27:54.460Z,12.40
2023-02-18T20:30:27.021Z,12.40
2023-02-18T20:32:54.508Z,12.40
2023-02-18T20:35:21.927Z,12.50
2023-02-18T20:37:49.382Z,12.50
2023-02-18T20:40:16.744Z,12.50
2023-02-18T20:42:44.007Z,12.50
2023-02-18T20:45:11.334Z,12.50
2023-02-18T20:47:38.695Z,12.50
2023-02-18T20:50:06.295Z,12.50
2023-02-18T20:52:34.780Z,12.50
2023-02-18T20:55:02.359Z,12.50
2023-02-18T20:57:29.651Z,12.50
2023-02-18T20:59:58.333Z,12.50
2023-02-18T21:02:25.814Z,12.50
2023-02-18T21:04:53.148Z,12.50
2023-02-18T21:07:20.448Z,12.50
2023-02-18T21:09:47.862Z,12.50
2023-02-18T21:12:15.103Z,12.50
2023-02-18T21:14:42.499Z,12.50
2023-02-18T21:17:09.795Z,12.50
2023-02-18T21:19:37.143Z,12.50
2023-02-18T21:22:04.574Z,12.50
2023-02-18T21:24:31.988Z,12.50
2023-02-18T21:26:59.448Z,12.50
2023-02-18T21:29:27.228Z,12.50
2023-02-18T21:31:54.993Z,12.50
2023-02-18T21:34:22.772Z,12.50
2023-02-18T21:36:50.059Z,12.50
2023-02-18T21:39:17.490Z,12.50
2023-02-18T21:41:44.764Z,12.50
2023-02-18T21:44:11.976Z,12.50
2023-02-18T21:46:39.745Z,12.50
2023-02-18T21:49:09.339Z,12.50
2023-02-18T21:51:57.566Z,12.50
2023-02-18T21:54:29.351Z,12.50
2023-02-18T21:56:57.590Z,12.50
2023-02-18T21:59:27.011Z,12.50
2023-02-18T22:01:55.173Z,12.50
2023-02-18T22:04:22.821Z,12.60
2023-02-18T22:06:50.058Z,12.60
2023-02-18T22:09:20.161Z,12.50
2023-02-18T22:11:47.630Z,12.50
2023-02-18T22:14:15.997Z,12.50
2023-02-18T22:16:44.158Z,12.50
2023-02-18T22:19:13.024Z,12.50
2023-02-18T22:21:41.181Z,12.50
2023-02-18T22:24:10.895Z,12.50
2023-02-18T22:26:38.296Z,12.50
2023-02-18T22:29:05.597Z,12.50
2023-02-18T22:31:33.260Z,12.50
2023-02-18T22:34:00.940Z,12.50
2023-02-18T22:36:29.322Z,12.50
2023-02-18T22:38:57.219Z,12.50
2023-02-18T22:41:25.958Z,12.50
2023-02-18T22:43:58.278Z,12.50
2023-02-18T22:46:26.530Z,12.40
2023-02-18T22:48:55.957Z,12.40
2023-02-18T22:51:26.635Z,12.40
2023-02-18T22:53:56.120Z,12.40
2023-02-18T22:56:24.981Z,12.40
2023-02-18T22:58:53.644Z,12.40
2023-02-18T23:01:31.251Z,12.40
2023-02-18T23:04:06.935Z,12.30
2023-02-18T23:06:35.709Z,12.30
2023-02-18T23:09:04.457Z,12.30
2023-02-18T23:11:31.810Z,12.30
2023-02-18T23:14:17.530Z,12.30
2023-02-18T23:17:12.840Z,12.30
2023-02-18T23:19:43.073Z,12.30
2023-02-18T23:22:12.702Z,12.30
2023-02-18T23:24:43.595Z,12.30
2023-02-18T23:27:12.891Z,12.30
2023-02-18T23:29:40.372Z,12.30
2023-02-18T23:32:08.131Z,12.30
2023-02-18T23:34:36.242Z,12.30
2023-02-18T23:37:03.704Z,12.30
2023-02-18T23:39:31.057Z,12.30
2023-02-18T23:41:58.381Z,12.30
2023-02-18T23:44:26.950Z,12.30
2023-02-18T23:46:54.285Z,12.30
2023-02-18T23:49:26.057Z,12.30
2023-02-18T23:51:55.291Z,12.30
2023-02-18T23:54:23.090Z,12.30
2023-02-18T23:56:50.390Z,12.30
2023-02-18T23:59:18.118Z,12.30
